ETEB 021356Z AUTO 17004KT 9999 CLR 13/03 A3045 RMK AO2 SLP335 T01250026 $ EDMA 021420Z VRB01KT CAVOK 13/02 Q1031 ETIK 021356Z AUTO 10004KT 9999 CLR 14/02 A3046 RMK AO2 SLP324 T01380018 LSZB 021420Z 30005KT 250V360 CAVOK 16/M02 Q1030 NOSIG LIPB 021350Z 18004KT 110V220 CAVOK 17/M03 Q1031 RMK MON LIB EDVE 021420Z 10004KT 070V140 CAVOK 11/04 Q1032 EDDW 021420Z 11005KT 080V150 CAVOK 11/04 Q1032 NOSIG LFMD 021400Z AUTO VRB03KT CAVOK 16/04 Q1032 NOSIG EDLW 021420Z 15004KT 070V210 CAVOK 17/M02 Q1030 EDDC 021420Z 01005KT CAVOK 13/06 Q1032 NOSIG EDDL 021420Z 18006KT 130V210 CAVOK 16/02 Q1030 NOSIG EDDE 021420Z 01004KT 340V060 CAVOK 07/04 Q1031 NOSIG LIRQ 021420Z /////KT CAVOK ///// Q//// EDDF 021420Z VRB02KT CAVOK 15/02 Q1031 NOSIG EDNY 021420Z 23005KT CAVOK 11/02 Q1031 ETHF 021420Z VRB02KT 9999 13/03 Q1031 BLU+BLU+ LIMJ 021420Z 19006KT 150V230 CAVOK 16/05 Q1031 ETIC 021356Z AUTO 13005KT 9999 CLR 15/M03 A3044 RMK AO2 SLP322 T01471032 $ LOWG 021420Z 16004KT 110V190 CAVOK 13/00 Q1033 NOSIG EDDH 021420Z 10006KT 060V130 CAVOK 13/03 Q1032 NOSIG EDDV 021420Z 09007KT CAVOK 09/05 Q1032 NOSIG EDQM 021420Z 15006KT 110V170 CAVOK 13/M02 Q1031 ETIH 021356Z AUTO 00000KT 9999 CLR 13/M03 A3046 RMK AO2 SLP332 T01281027 ETSI 021420Z 07003KT 9999 13/01 Q1031 BLU+BLU+ LOWI 021350Z VRB01KT CAVOK 18/M05 Q1030 NOSIG EDVK 021420Z 08006KT CAVOK 13/02 Q1031 EDHK 021420Z 07006KT CAVOK 05/02 Q1033 LOWK 021420Z VRB02KT CAVOK 13/M01 Q1033 NOSIG EDDK 021420Z 12007KT 090V150 CAVOK 17/01 Q1030 NOSIG EDDP 021420Z 06007KT CAVOK 08/05 Q1033 NOSIG LOWL 021420Z 13005KT 090V160 CAVOK 07/02 Q1033 NOSIG LSZA 021420Z 19006KT CAVOK 17/M01 Q1032 NOSIG EDHL 021420Z 05003KT 360V150 CAVOK 08/04 Q1033 LIML 021420Z VRB03KT CAVOK 15/M00 Q1033 NOSIG LFML 021400Z AUTO VRB02KT CAVOK 14/08 Q1031 NOSIG LFMT 021400Z AUTO 08005KT CAVOK 15/07 Q1031 NOSIG EDLN 021420Z 12008KT CAVOK 15/05 Q1030 EDDM 021420Z VRB03KT CAVOK 13/01 Q1031 NOSIG EDDG 021420Z 12006KT 050V190 CAVOK 16/04 Q1030 NOSIG ETSN 021420Z VRB02KT 9999 12/01 Q1031 BLU+BLU+ ETHN 021420Z VRB03KT 9999 13/03 Q1030 BLU+BLU+ LFMN 021400Z VRB01KT CAVOK 15/06 Q1032 NOSIG EDDN 021420Z 14004KT 070V210 CAVOK 15/M02 Q1031 NOSIG EDMO 021420Z 04004KT 340V100 CAVOK 14/00 Q1030 EDLP 021420Z 11009KT CAVOK 15/M00 Q1030 LIPR 021420Z 02005KT 360V060 CAVOK 12/05 Q1033 EDDR 021420Z 10005KT 070V150 CAVOK 16/02 Q1030 NOSIG LOWS 021420Z 32006KT 290V360 CAVOK 14/01 Q1031 NOSIG LSGS 021420Z VRB02KT CAVOK 18/M16 Q1029 EDDS 021420Z VRB02KT CAVOK 16/M00 Q1030 NOSIG LFTH 021400Z AUTO 08008KT CAVOK 14/06 Q1031 NOSIG LIVT 021355Z 00000KT CAVOK 13/02 Q1032 RMK SKC QUK 2 QUL 0 VIS MAR 20 KM VIS MIN 9999 LIMF 021420Z 09004KT 070V130 CAVOK 16/M05 Q1032 LIPI 021355Z 20003KT CAVOK 16/M00 Q1032 RMK SKC VIS MIN 9999 WIND THR06 25004KT WIND THR24 21004KT BLU LIPZ 021420Z 15005KT CAVOK 14/03 Q1033 NOSIG LIPX 021420Z 21003KT 170V270 CAVOK 16/M01 Q1033 EDXW 021420Z AUTO 05005KT 9999 // NCD 06/02 Q1033 LOWW 021420Z 02005KT 8000 NSC 09/05 Q1033 NOSIG LSZH 021420Z VRB02KT CAVOK 15/M04 Q1031 NOSIG

METAR Messwerte

Klicken Sie auf einen Ort, um die 36h-Historie abzurufen

Ort
m ü. NN
Zeit Temperatur Taupunkt Rel.
Luftfeuchte
Luftdruck:
Altimeter
NN
Station
Wind in Beaufort
(Knoten)
Sichtweite
(Meter)
Wolken
(Meter über Grund)
Wettererscheinung
Ansbach
467
Di 02.03. 14:5613351 %1031
1032
975
S 2 (4)>= 10000  
Augsburg
463
Di 02.03. 15:2013247 %1031
1032
976
Uml 1 (1)>= 10000Nicht signifikant 
Bad Windsheim / Illesheim
325
Di 02.03. 14:5614244 %1031
1031
992
O 2 (4)>= 10000  
Bern/Belp
505
Di 02.03. 15:2016-229 %1030
1030
970
WNW 2 (5)
WSW - N
>= 10000Nicht signifikant 
Bozen
241
Di 02.03. 14:5017-325 %1031
1031
1002
S 2 (4)
OSO - SW
>= 10000Nicht signifikant 
Braunschweig
88
Di 02.03. 15:2011462 %1032
1032
1021
O 2 (4)
ONO - SO
>= 10000Nicht signifikant 
Bremen
5
Di 02.03. 15:2011462 %1032
1032
1031
OSO 2 (5)
O - SSO
>= 10000Nicht signifikant 
Cannes
9
Di 02.03. 15:0016445 %1032
1032
1031
Uml 2 (3)>= 10000Nicht signifikant 
Dortmund/Wickede
127
Di 02.03. 15:2017-227 %1030
1030
1015
SSO 2 (4)
ONO - SSW
>= 10000Nicht signifikant 
Dresden-Klotzsche
226
Di 02.03. 15:2013662 %1032
1032
1005
N 2 (5)>= 10000Nicht signifikant 
Düsseldorf
44
Di 02.03. 15:2016239 %1030
1030
1025
S 2 (6)
SO - SSW
>= 10000Nicht signifikant 
Erfurt-Bindersleben
323
Di 02.03. 15:207481 %1031
1032
992
N 2 (4)
NNW - ONO
>= 10000Nicht signifikant 
Florenz
38
Di 02.03. 15:20    % 
 
 
 >= 10000Nicht signifikant 
Frankfurt
113
Di 02.03. 15:2015241 %1031
1031
1017
Uml 1 (2)>= 10000Nicht signifikant 
Friedrichshafen
424
Di 02.03. 15:2011254 %1031
1032
980
SW 2 (5)>= 10000Nicht signifikant 
Fritzlar
181
Di 02.03. 15:2013351 %1031
1031
1009
Uml 1 (2)>= 10000  
Genua
3
Di 02.03. 15:2016548 %1031
1031
1031
S 2 (6)
SSO - SW
>= 10000Nicht signifikant 
Grafenwöhr
415
Di 02.03. 14:5615-329 %1031
1031
981
SO 2 (5)>= 10000  
Graz-Thalerhof
347
Di 02.03. 15:2013041 %1033
1033
991
SSO 2 (4)
OSO - S
>= 10000Nicht signifikant 
Hamburg-Fuhlsbüttel
16
Di 02.03. 15:2013351 %1032
1032
1030
O 2 (6)
ONO - SO
>= 10000Nicht signifikant 
Hannover
54
Di 02.03. 15:209576 %1032
1032
1025
O 3 (7)>= 10000Nicht signifikant 
Hof
568
Di 02.03. 15:2013-235 %1031
1032
964
SSO 2 (6)
OSO - S
>= 10000Nicht signifikant 
Hohenfels
442
Di 02.03. 14:5613-333 %1031
1032
978
Windstill>= 10000  
Ingolstadt
370
Di 02.03. 15:2013144 %1031
1031
987
ONO 2 (3)>= 10000  
Innsbruck
581
Di 02.03. 14:5018-520 %1030
1029
961
Uml 1 (1)>= 10000Nicht signifikant 
Kassel/Calden
285
Di 02.03. 15:2013247 %1031
1031
997
O 2 (6)>= 10000Nicht signifikant 
Kiel
31
Di 02.03. 15:205281 %1033
1033
1029
ONO 2 (6)>= 10000Nicht signifikant 
Klagenfurt
441
Di 02.03. 15:2013-138 %1033
1034
980
Uml 1 (2)>= 10000Nicht signifikant 
Köln/Bonn
99
Di 02.03. 15:2017134 %1030
1030
1018
OSO 3 (7)
O - SSO
>= 10000Nicht signifikant 
Leipzig-Schkeuditz
149
Di 02.03. 15:208581 %1033
1034
1015
ONO 3 (7)>= 10000Nicht signifikant 
Linz/Hörsching
313
Di 02.03. 15:207270 %1033
1034
995
SO 2 (5)
O - SSO
>= 10000Nicht signifikant 
Lugano
276
Di 02.03. 15:2017-129 %1032
1032
999
S 2 (6)>= 10000Nicht signifikant 
Lübeck-Blankensee
16
Di 02.03. 15:208476 %1033
1033
1031
NO 2 (3)
N - SSO
>= 10000Nicht signifikant 
Mailand
103
Di 02.03. 15:2015-036 %1033
1033
1020
Uml 2 (3)>= 10000Nicht signifikant 
Marseille/Marignane
36
Di 02.03. 15:0014867 %1031
1031
1027
Uml 1 (2)>= 10000Nicht signifikant 
Montpellier
6
Di 02.03. 15:0015759 %1031
1031
1030
O 2 (5)>= 10000Nicht signifikant 
Mönchengladbach
38
Di 02.03. 15:2015551 %1030
1030
1025
OSO 3 (8)>= 10000Nicht signifikant 
München
447
Di 02.03. 15:2013144 %1031
1032
978
Uml 2 (3)>= 10000Nicht signifikant 
Münster/Osnabrück
52
Di 02.03. 15:2016445 %1030
1030
1024
OSO 2 (6)
NO - S
>= 10000Nicht signifikant 
Neuburg/Donau
387
Di 02.03. 15:2012147 %1031
1032
985
Uml 1 (2)>= 10000  
Niederstetten
473
Di 02.03. 15:2013351 %1030
1031
974
Uml 2 (3)>= 10000  
Nizza
10
Di 02.03. 15:0015655 %1032
1032
1031
Uml 1 (1)>= 10000Nicht signifikant 
Nürnberg
312
Di 02.03. 15:2015-231 %1031
1031
994
SO 2 (4)
ONO - SSW
>= 10000Nicht signifikant 
Oberpfaffenhofen
600
Di 02.03. 15:2014038 %1030
1030
959
NO 2 (4)
NNW - O
>= 10000Nicht signifikant 
Paderborn/Lippstadt
213
Di 02.03. 15:2015-036 %1030
1030
1004
OSO 3 (9)>= 10000Nicht signifikant 
Rimini
13
Di 02.03. 15:2012562 %1033
1033
1031
NNO 2 (5)
N - ONO
>= 10000Nicht signifikant 
Saarbrücken/Ensheim
320
Di 02.03. 15:2016239 %1030
1030
992
O 2 (5)
ONO - SSO
>= 10000Nicht signifikant 
Salzburg
450
Di 02.03. 15:2014141 %1031
1031
977
NW 2 (6)
WNW - N
>= 10000Nicht signifikant 
Sion
481
Di 02.03. 15:2018-169 %1029
1029
972
Uml 1 (2)>= 10000Nicht signifikant 
Stuttgart
419
Di 02.03. 15:2016-034 %1030
1030
980
Uml 1 (2)>= 10000Nicht signifikant 
Toulon
4
Di 02.03. 15:0014658 %1031
1031
1031
O 3 (8)>= 10000Nicht signifikant 
Triest
20
Di 02.03. 14:5513247 %1032
1032
1030
Windstill>= 10000Nicht signifikant 
Turin
287
Di 02.03. 15:2016-523 %1032
1032
997
O 2 (4)
ONO - SO
>= 10000Nicht signifikant 
Udine/Rivolto
53
Di 02.03. 14:5516-034 %1032
1032
1026
SSW 2 (3)>= 10000Nicht signifikant 
Venedig
6
Di 02.03. 15:2014347 %1033
1033
1032
SSO 2 (5)>= 10000Nicht signifikant 
Verona/Villafranca
68
Di 02.03. 15:2016-131 %1033
1033
1025
SSW 2 (3)
S - W
>= 10000Nicht signifikant 
Westerland/Sylt
20
Di 02.03. 15:206275 %1033
1033
1031
NO 2 (5)>= 10000  
Wien/Schwechat
190
Di 02.03. 15:209576 %1033
1034
1010
NNO 2 (5)8000Nicht signifikant 
Zürich-Kloten
432
Di 02.03. 15:2015-427 %1031
1031
979
Uml 1 (2)>= 10000Nicht signifikant 

Altimeter: Einstellung am Altimeter (Höhenmesser), die Höhe 0 muss auf diesen Luftdruckwert zeigen, damit das Gerät die Stationshöhe richtig anzeigt.

NN: Luftdruck reduziert auf "Normal Null", auf Meereshöhe, dieser von der Temperatur abhängige Wert wird bisweilen unkorrekt einfach als "Luftdruck" bezeichnet. Eigentlich nur eine fiktive Größe, die es erlaubt, Stationen auf unterschiedlichen Höhen miteinander zu vergleichen.

Station: Realer Luftdruck an der Station.